sensor_id;sensor_type;location;lat;lon;timestamp;pressure;altitude;pressure_sealevel;temperature;humidity
84267;BME280;74414;51.098;13.716;2023-12-04T00:02:08;100522.28;;;-5.43;79.50
84267;BME280;74414;51.098;13.716;2023-12-04T00:04:34;100520.09;;;-5.46;79.72
84267;BME280;74414;51.098;13.716;2023-12-04T00:06:59;100527.63;;;-5.48;79.12
84267;BME280;74414;51.098;13.716;2023-12-04T00:09:24;100526.84;;;-5.43;79.62
84267;BME280;74414;51.098;13.716;2023-12-04T00:11:50;100516.31;;;-5.45;79.54
84267;BME280;74414;51.098;13.716;2023-12-04T00:14:15;100516.88;;;-5.43;79.27
84267;BME280;74414;51.098;13.716;2023-12-04T00:16:40;100524.41;;;-5.45;78.88
84267;BME280;74414;51.098;13.716;2023-12-04T00:19:06;100530.53;;;-5.49;79.29
84267;BME280;74414;51.098;13.716;2023-12-04T00:21:32;100524.34;;;-5.50;79.07
84267;BME280;74414;51.098;13.716;2023-12-04T00:23:57;100519.53;;;-5.48;79.18
84267;BME280;74414;51.098;13.716;2023-12-04T00:26:22;100519.84;;;-5.44;79.23
84267;BME280;74414;51.098;13.716;2023-12-04T00:28:48;100520.13;;;-5.41;79.33
84267;BME280;74414;51.098;13.716;2023-12-04T00:31:14;100507.91;;;-5.48;78.76
84267;BME280;74414;51.098;13.716;2023-12-04T00:33:39;100503.44;;;-5.60;78.79
84267;BME280;74414;51.098;13.716;2023-12-04T00:36:05;100496.59;;;-5.67;78.94
84267;BME280;74414;51.098;13.716;2023-12-04T00:38:31;100499.63;;;-5.64;79.15
84267;BME280;74414;51.098;13.716;2023-12-04T00:40:56;100494.69;;;-5.50;80.34
84267;BME280;74414;51.098;13.716;2023-12-04T00:43:21;100494.03;;;-5.35;80.59
84267;BME280;74414;51.098;13.716;2023-12-04T00:45:47;100491.84;;;-5.17;81.23
84267;BME280;74414;51.098;13.716;2023-12-04T00:48:12;100490.75;;;-5.16;80.86
84267;BME280;74414;51.098;13.716;2023-12-04T00:50:37;100494.72;;;-5.02;81.04
84267;BME280;74414;51.098;13.716;2023-12-04T00:53:03;100498.34;;;-5.13;80.54
84267;BME280;74414;51.098;13.716;2023-12-04T00:55:29;100495.59;;;-5.18;80.21
84267;BME280;74414;51.098;13.716;2023-12-04T00:57:54;100491.41;;;-5.30;79.98
84267;BME280;74414;51.098;13.716;2023-12-04T01:00:20;100478.72;;;-5.30;79.94
84267;BME280;74414;51.098;13.716;2023-12-04T01:02:45;100483.50;;;-5.37;79.27
84267;BME280;74414;51.098;13.716;2023-12-04T01:05:11;100485.63;;;-5.39;79.66
84267;BME280;74414;51.098;13.716;2023-12-04T01:07:36;100493.47;;;-5.37;80.12
84267;BME280;74414;51.098;13.716;2023-12-04T01:10:01;100494.09;;;-5.52;79.50
84267;BME280;74414;51.098;13.716;2023-12-04T01:12:27;100489.13;;;-5.60;78.98
84267;BME280;74414;51.098;13.716;2023-12-04T01:14:52;100491.94;;;-5.72;78.91
84267;BME280;74414;51.098;13.716;2023-12-04T01:17:17;100494.97;;;-5.68;79.26
84267;BME280;74414;51.098;13.716;2023-12-04T01:19:43;100495.16;;;-5.75;79.15
84267;BME280;74414;51.098;13.716;2023-12-04T01:22:08;100500.78;;;-5.76;79.05
84267;BME280;74414;51.098;13.716;2023-12-04T01:24:34;100501.22;;;-5.84;79.03
84267;BME280;74414;51.098;13.716;2023-12-04T01:26:59;100497.34;;;-5.93;78.28
84267;BME280;74414;51.098;13.716;2023-12-04T01:29:25;100505.56;;;-5.83;78.93
84267;BME280;74414;51.098;13.716;2023-12-04T01:31:50;100505.16;;;-5.92;78.38
84267;BME280;74414;51.098;13.716;2023-12-04T01:34:15;100508.81;;;-5.81;79.57
84267;BME280;74414;51.098;13.716;2023-12-04T01:36:41;100508.63;;;-5.96;78.57
84267;BME280;74414;51.098;13.716;2023-12-04T01:39:06;100509.66;;;-5.97;78.10
84267;BME280;74414;51.098;13.716;2023-12-04T01:41:32;100502.00;;;-5.89;79.29
84267;BME280;74414;51.098;13.716;2023-12-04T01:43:57;100512.69;;;-5.94;78.71
84267;BME280;74414;51.098;13.716;2023-12-04T01:46:22;100498.72;;;-6.07;78.70
84267;BME280;74414;51.098;13.716;2023-12-04T01:48:48;100499.66;;;-6.18;78.04
84267;BME280;74414;51.098;13.716;2023-12-04T01:51:14;100493.78;;;-6.15;78.03
84267;BME280;74414;51.098;13.716;2023-12-04T01:53:42;100493.13;;;-6.22;77.84
84267;BME280;74414;51.098;13.716;2023-12-04T01:56:09;100493.63;;;-6.25;77.69
84267;BME280;74414;51.098;13.716;2023-12-04T01:58:34;100494.81;;;-6.16;78.85
84267;BME280;74414;51.098;13.716;2023-12-04T02:01:00;100499.09;;;-6.04;79.05
84267;BME280;74414;51.098;13.716;2023-12-04T02:03:26;100488.03;;;-6.02;79.35
84267;BME280;74414;51.098;13.716;2023-12-04T02:05:53;100494.31;;;-5.97;79.71
84267;BME280;74414;51.098;13.716;2023-12-04T02:08:19;100491.06;;;-5.77;80.57
84267;BME280;74414;51.098;13.716;2023-12-04T02:10:44;100493.22;;;-5.58;80.54
84267;BME280;74414;51.098;13.716;2023-12-04T02:13:10;100475.13;;;-5.57;81.29
84267;BME280;74414;51.098;13.716;2023-12-04T02:15:36;100473.00;;;-5.55;81.28
84267;BME280;74414;51.098;13.716;2023-12-04T02:18:03;100464.59;;;-5.59;80.10
84267;BME280;74414;51.098;13.716;2023-12-04T02:20:32;100457.06;;;-5.78;79.25
84267;BME280;74414;51.098;13.716;2023-12-04T02:23:01;100462.38;;;-5.88;79.75
84267;BME280;74414;51.098;13.716;2023-12-04T02:25:27;100460.25;;;-5.86;79.88
84267;BME280;74414;51.098;13.716;2023-12-04T02:27:54;100456.72;;;-5.65;81.03
84267;BME280;74414;51.098;13.716;2023-12-04T02:30:23;100458.94;;;-5.57;80.87
84267;BME280;74414;51.098;13.716;2023-12-04T02:32:51;100453.25;;;-5.61;80.94
84267;BME280;74414;51.098;13.716;2023-12-04T02:35:23;100456.47;;;-5.42;81.20
84267;BME280;74414;51.098;13.716;2023-12-04T02:37:50;100452.81;;;-5.31;81.50
84267;BME280;74414;51.098;13.716;2023-12-04T02:40:17;100454.81;;;-5.21;81.46
84267;BME280;74414;51.098;13.716;2023-12-04T02:42:42;100459.03;;;-5.30;81.73
84267;BME280;74414;51.098;13.716;2023-12-04T02:45:08;100442.00;;;-5.31;81.42
84267;BME280;74414;51.098;13.716;2023-12-04T02:47:33;100445.75;;;-5.32;81.66
84267;BME280;74414;51.098;13.716;2023-12-04T02:49:59;100434.88;;;-5.42;81.44
84267;BME280;74414;51.098;13.716;2023-12-04T02:52:25;100435.38;;;-5.45;81.29
84267;BME280;74414;51.098;13.716;2023-12-04T02:54:50;100425.28;;;-5.55;81.50
84267;BME280;74414;51.098;13.716;2023-12-04T02:57:16;100419.31;;;-5.57;81.51
84267;BME280;74414;51.098;13.716;2023-12-04T02:59:41;100406.56;;;-5.61;81.02
84267;BME280;74414;51.098;13.716;2023-12-04T03:02:07;100405.34;;;-5.53;81.15
84267;BME280;74414;51.098;13.716;2023-12-04T03:04:34;100399.13;;;-5.54;81.14
84267;BME280;74414;51.098;13.716;2023-12-04T03:07:00;100401.44;;;-5.63;80.89
84267;BME280;74414;51.098;13.716;2023-12-04T03:09:25;100401.31;;;-5.51;81.65
84267;BME280;74414;51.098;13.716;2023-12-04T03:11:51;100392.34;;;-5.57;81.35
84267;BME280;74414;51.098;13.716;2023-12-04T03:14:16;100398.81;;;-5.58;80.94
84267;BME280;74414;51.098;13.716;2023-12-04T03:16:42;100390.16;;;-5.60;80.76
84267;BME280;74414;51.098;13.716;2023-12-04T03:19:07;100394.78;;;-5.55;81.44
84267;BME280;74414;51.098;13.716;2023-12-04T03:21:33;100399.44;;;-5.50;80.76
84267;BME280;74414;51.098;13.716;2023-12-04T03:23:59;100397.28;;;-5.48;81.05
84267;BME280;74414;51.098;13.716;2023-12-04T03:26:25;100394.00;;;-5.56;80.15
84267;BME280;74414;51.098;13.716;2023-12-04T03:28:50;100392.84;;;-5.60;80.46
84267;BME280;74414;51.098;13.716;2023-12-04T03:31:16;100385.22;;;-5.68;80.01
84267;BME280;74414;51.098;13.716;2023-12-04T03:33:41;100395.13;;;-5.73;79.36
84267;BME280;74414;51.098;13.716;2023-12-04T03:36:07;100383.13;;;-5.82;79.31
84267;BME280;74414;51.098;13.716;2023-12-04T03:38:33;100380.97;;;-5.85;79.67
84267;BME280;74414;51.098;13.716;2023-12-04T03:40:58;100383.84;;;-5.92;78.93
84267;BME280;74414;51.098;13.716;2023-12-04T03:43:24;100369.25;;;-5.96;79.25
84267;BME280;74414;51.098;13.716;2023-12-04T03:45:50;100373.53;;;-6.00;79.20
84267;BME280;74414;51.098;13.716;2023-12-04T03:48:16;100369.34;;;-6.07;79.05
84267;BME280;74414;51.098;13.716;2023-12-04T03:50:41;100367.19;;;-6.10;78.67
84267;BME280;74414;51.098;13.716;2023-12-04T03:53:06;100364.34;;;-6.20;78.22
84267;BME280;74414;51.098;13.716;2023-12-04T03:55:32;100366.97;;;-6.25;78.53
84267;BME280;74414;51.098;13.716;2023-12-04T03:57:57;100370.72;;;-6.26;78.55
84267;BME280;74414;51.098;13.716;2023-12-04T04:00:23;100374.66;;;-6.34;78.66
84267;BME280;74414;51.098;13.716;2023-12-04T04:02:49;100375.91;;;-6.41;77.84
84267;BME280;74414;51.098;13.716;2023-12-04T04:05:15;100371.19;;;-6.51;77.82
84267;BME280;74414;51.098;13.716;2023-12-04T04:07:41;100375.69;;;-6.57;77.99
84267;BME280;74414;51.098;13.716;2023-12-04T04:10:07;100368.91;;;-6.59;78.26
84267;BME280;74414;51.098;13.716;2023-12-04T04:12:32;100362.22;;;-6.57;77.94
84267;BME280;74414;51.098;13.716;2023-12-04T04:14:58;100359.22;;;-6.60;78.03
84267;BME280;74414;51.098;13.716;2023-12-04T04:17:23;100353.00;;;-6.61;78.47
84267;BME280;74414;51.098;13.716;2023-12-04T04:19:51;100352.94;;;-6.66;78.80
84267;BME280;74414;51.098;13.716;2023-12-04T04:22:17;100351.28;;;-6.67;78.53
84267;BME280;74414;51.098;13.716;2023-12-04T04:24:42;100353.09;;;-6.72;78.34
84267;BME280;74414;51.098;13.716;2023-12-04T04:27:08;100357.09;;;-6.75;78.42
84267;BME280;74414;51.098;13.716;2023-12-04T04:29:33;100353.59;;;-6.75;78.31
84267;BME280;74414;51.098;13.716;2023-12-04T04:31:58;100352.63;;;-6.86;77.95
84267;BME280;74414;51.098;13.716;2023-12-04T04:34:24;100346.66;;;-6.88;78.56
84267;BME280;74414;51.098;13.716;2023-12-04T04:36:49;100342.03;;;-6.92;78.11
84267;BME280;74414;51.098;13.716;2023-12-04T04:39:14;100336.28;;;-6.96;77.91
84267;BME280;74414;51.098;13.716;2023-12-04T04:41:40;100335.16;;;-7.00;78.33
84267;BME280;74414;51.098;13.716;2023-12-04T04:44:06;100327.00;;;-7.05;78.18
84267;BME280;74414;51.098;13.716;2023-12-04T04:46:31;100328.09;;;-7.06;77.92
84267;BME280;74414;51.098;13.716;2023-12-04T04:48:57;100324.47;;;-7.11;78.19
84267;BME280;74414;51.098;13.716;2023-12-04T04:51:22;100318.19;;;-7.17;78.11
84267;BME280;74414;51.098;13.716;2023-12-04T04:53:48;100313.88;;;-7.18;78.25
84267;BME280;74414;51.098;13.716;2023-12-04T04:56:13;100320.00;;;-7.06;78.51
84267;BME280;74414;51.098;13.716;2023-12-04T04:58:39;100318.88;;;-7.10;78.33
84267;BME280;74414;51.098;13.716;2023-12-04T05:01:04;100318.44;;;-7.02;78.66
84267;BME280;74414;51.098;13.716;2023-12-04T05:03:30;100322.94;;;-6.91;79.18
84267;BME280;74414;51.098;13.716;2023-12-04T05:05:55;100328.47;;;-6.81;79.26
84267;BME280;74414;51.098;13.716;2023-12-04T05:08:20;100321.28;;;-6.75;79.31
84267;BME280;74414;51.098;13.716;2023-12-04T05:10:45;100326.91;;;-6.60;79.82
84267;BME280;74414;51.098;13.716;2023-12-04T05:13:11;100333.22;;;-6.50;80.39
84267;BME280;74414;51.098;13.716;2023-12-04T05:15:36;100329.06;;;-6.40;80.49
84267;BME280;74414;51.098;13.716;2023-12-04T05:18:01;100327.88;;;-6.28;80.72
84267;BME280;74414;51.098;13.716;2023-12-04T05:20:27;100330.75;;;-6.13;81.08
84267;BME280;74414;51.098;13.716;2023-12-04T05:22:52;100325.81;;;-5.99;81.70
84267;BME280;74414;51.098;13.716;2023-12-04T05:25:18;100331.00;;;-5.93;81.02
84267;BME280;74414;51.098;13.716;2023-12-04T05:27:43;100328.16;;;-5.81;81.04
84267;BME280;74414;51.098;13.716;2023-12-04T05:30:08;100316.66;;;-5.72;81.19
84267;BME280;74414;51.098;13.716;2023-12-04T05:32:34;100314.94;;;-5.56;81.14
84267;BME280;74414;51.098;13.716;2023-12-04T05:34:59;100307.91;;;-5.57;81.42
84267;BME280;74414;51.098;13.716;2023-12-04T05:37:24;100302.00;;;-5.54;80.95
84267;BME280;74414;51.098;13.716;2023-12-04T05:39:50;100297.50;;;-5.43;81.44
84267;BME280;74414;51.098;13.716;2023-12-04T05:42:15;100294.19;;;-5.24;81.34
84267;BME280;74414;51.098;13.716;2023-12-04T05:44:41;100282.16;;;-5.11;81.68
84267;BME280;74414;51.098;13.716;2023-12-04T05:47:06;100283.00;;;-5.06;81.72
84267;BME280;74414;51.098;13.716;2023-12-04T05:49:33;100284.69;;;-4.95;81.72
84267;BME280;74414;51.098;13.716;2023-12-04T05:51:58;100261.31;;;-4.79;81.34
84267;BME280;74414;51.098;13.716;2023-12-04T05:54:24;100264.44;;;-4.50;80.80
84267;BME280;74414;51.098;13.716;2023-12-04T05:56:50;100252.38;;;-4.28;80.23
84267;BME280;74414;51.098;13.716;2023-12-04T05:59:15;100247.78;;;-4.32;79.98
84267;BME280;74414;51.098;13.716;2023-12-04T06:01:40;100251.91;;;-4.10;79.68
84267;BME280;74414;51.098;13.716;2023-12-04T06:04:05;100247.09;;;-3.98;78.94
84267;BME280;74414;51.098;13.716;2023-12-04T06:06:31;100242.00;;;-3.84;78.70
84267;BME280;74414;51.098;13.716;2023-12-04T06:08:56;100236.59;;;-3.69;77.48
84267;BME280;74414;51.098;13.716;2023-12-04T06:11:21;100241.47;;;-3.66;77.40
84267;BME280;74414;51.098;13.716;2023-12-04T06:13:47;100235.00;;;-3.55;77.92
84267;BME280;74414;51.098;13.716;2023-12-04T06:16:13;100229.59;;;-3.45;78.60
84267;BME280;74414;51.098;13.716;2023-12-04T06:18:38;100237.19;;;-3.32;77.39
84267;BME280;74414;51.098;13.716;2023-12-04T06:21:04;100237.19;;;-3.27;76.39
84267;BME280;74414;51.098;13.716;2023-12-04T06:23:29;100231.75;;;-3.22;75.19
84267;BME280;74414;51.098;13.716;2023-12-04T06:25:55;100224.72;;;-3.28;77.34
84267;BME280;74414;51.098;13.716;2023-12-04T06:28:21;100219.31;;;-3.28;75.58
84267;BME280;74414;51.098;13.716;2023-12-04T06:30:46;100235.28;;;-3.21;75.51
84267;BME280;74414;51.098;13.716;2023-12-04T06:33:12;100229.59;;;-3.10;74.43
84267;BME280;74414;51.098;13.716;2023-12-04T06:35:40;100239.88;;;-3.02;73.93
84267;BME280;74414;51.098;13.716;2023-12-04T06:38:07;100226.88;;;-3.10;74.04
84267;BME280;74414;51.098;13.716;2023-12-04T06:40:33;100233.09;;;-3.04;73.38
84267;BME280;74414;51.098;13.716;2023-12-04T06:42:59;100234.19;;;-3.05;73.59
84267;BME280;74414;51.098;13.716;2023-12-04T06:45:25;100240.41;;;-3.10;73.85
84267;BME280;74414;51.098;13.716;2023-12-04T06:47:52;100242.56;;;-3.02;73.33
84267;BME280;74414;51.098;13.716;2023-12-04T06:50:18;100239.06;;;-3.02;72.66
84267;BME280;74414;51.098;13.716;2023-12-04T06:52:44;100235.25;;;-3.06;73.90
84267;BME280;74414;51.098;13.716;2023-12-04T06:55:09;100242.03;;;-3.04;73.02
84267;BME280;74414;51.098;13.716;2023-12-04T06:57:34;100238.78;;;-3.06;72.90
84267;BME280;74414;51.098;13.716;2023-12-04T07:00:00;100238.78;;;-3.06;73.27
84267;BME280;74414;51.098;13.716;2023-12-04T07:02:26;100232.81;;;-2.93;72.35
84267;BME280;74414;51.098;13.716;2023-12-04T07:04:51;100233.09;;;-2.94;74.01
84267;BME280;74414;51.098;13.716;2023-12-04T07:07:16;100239.31;;;-2.99;72.66
84267;BME280;74414;51.098;13.716;2023-12-04T07:09:41;100247.44;;;-2.94;72.57
84267;BME280;74414;51.098;13.716;2023-12-04T07:12:07;100225.78;;;-2.94;72.32
84267;BME280;74414;51.098;13.716;2023-12-04T07:14:32;100226.56;;;-2.83;71.06
84267;BME280;74414;51.098;13.716;2023-12-04T07:16:58;100226.03;;;-2.90;71.56
84267;BME280;74414;51.098;13.716;2023-12-04T07:19:25;100223.31;;;-2.90;71.40
84267;BME280;74414;51.098;13.716;2023-12-04T07:21:52;100227.38;;;-2.93;72.02
84267;BME280;74414;51.098;13.716;2023-12-04T07:24:17;100220.88;;;-2.87;71.08
84267;BME280;74414;51.098;13.716;2023-12-04T07:26:42;100221.94;;;-2.78;70.79
84267;BME280;74414;51.098;13.716;2023-12-04T07:29:07;100219.53;;;-2.84;71.59
84267;BME280;74414;51.098;13.716;2023-12-04T07:31:33;100213.53;;;-2.71;70.98
84267;BME280;74414;51.098;13.716;2023-12-04T07:33:58;100208.38;;;-2.67;70.35
84267;BME280;74414;51.098;13.716;2023-12-04T07:36:26;100211.63;;;-2.65;70.20
84267;BME280;74414;51.098;13.716;2023-12-04T07:38:51;100211.63;;;-2.65;70.13
84267;BME280;74414;51.098;13.716;2023-12-04T07:41:19;100208.91;;;-2.60;70.46
84267;BME280;74414;51.098;13.716;2023-12-04T07:43:44;100215.91;;;-2.54;69.59
84267;BME280;74414;51.098;13.716;2023-12-04T07:46:10;100233.78;;;-2.48;69.51
84267;BME280;74414;51.098;13.716;2023-12-04T07:48:39;100220.50;;;-2.50;69.02
84267;BME280;74414;51.098;13.716;2023-12-04T07:51:06;100217.81;;;-2.55;69.03
84267;BME280;74414;51.098;13.716;2023-12-04T07:53:32;100212.13;;;-2.53;69.30
84267;BME280;74414;51.098;13.716;2023-12-04T07:56:00;100211.00;;;-2.42;68.98
84267;BME280;74414;51.098;13.716;2023-12-04T07:58:26;100223.19;;;-2.45;68.28
84267;BME280;74414;51.098;13.716;2023-12-04T08:00:51;100205.81;;;-2.39;68.25
84267;BME280;74414;51.098;13.716;2023-12-04T08:03:16;100208.53;;;-2.34;67.86
84267;BME280;74414;51.098;13.716;2023-12-04T08:05:42;100205.78;;;-2.24;67.37
84267;BME280;74414;51.098;13.716;2023-12-04T08:08:07;100213.84;;;-2.14;66.76
84267;BME280;74414;51.098;13.716;2023-12-04T08:10:33;100211.41;;;-2.15;66.62
84267;BME280;74414;51.098;13.716;2023-12-04T08:12:58;100198.59;;;-2.00;66.19
84267;BME280;74414;51.098;13.716;2023-12-04T08:15:23;100204.44;;;-1.83;66.22
84267;BME280;74414;51.098;13.716;2023-12-04T08:17:49;100191.13;;;-1.79;65.36
84267;BME280;74414;51.098;13.716;2023-12-04T08:20:14;100196.38;;;-1.54;65.08
84267;BME280;74414;51.098;13.716;2023-12-04T08:22:40;100194.75;;;-1.55;65.31
84267;BME280;74414;51.098;13.716;2023-12-04T08:25:07;100204.88;;;-1.32;63.71
84267;BME280;74414;51.098;13.716;2023-12-04T08:27:32;100197.75;;;-1.23;63.50
84267;BME280;74414;51.098;13.716;2023-12-04T08:29:58;100206.13;;;-0.91;62.57
84267;BME280;74414;51.098;13.716;2023-12-04T08:32:23;100204.16;;;-1.09;63.25
84267;BME280;74414;51.098;13.716;2023-12-04T08:34:48;100201.25;;;-1.51;64.89
84267;BME280;74414;51.098;13.716;2023-12-04T08:37:14;100195.31;;;-1.58;64.46
84267;BME280;74414;51.098;13.716;2023-12-04T08:39:39;100203.03;;;-1.75;65.19
84267;BME280;74414;51.098;13.716;2023-12-04T08:42:04;100187.22;;;-1.63;65.11
84267;BME280;74414;51.098;13.716;2023-12-04T08:44:30;100191.88;;;-1.68;65.24
84267;BME280;74414;51.098;13.716;2023-12-04T08:46:55;100188.41;;;-1.79;65.17
84267;BME280;74414;51.098;13.716;2023-12-04T08:49:22;100205.78;;;-1.80;65.86
84267;BME280;74414;51.098;13.716;2023-12-04T08:51:48;100206.44;;;-1.93;65.25
84267;BME280;74414;51.098;13.716;2023-12-04T08:54:13;100197.19;;;-1.92;65.86
84267;BME280;74414;51.098;13.716;2023-12-04T08:56:38;100193.56;;;-1.77;65.45
84267;BME280;74414;51.098;13.716;2023-12-04T08:59:04;100200.56;;;-1.71;64.39
84267;BME280;74414;51.098;13.716;2023-12-04T09:01:29;100185.59;;;-1.64;65.32
84267;BME280;74414;51.098;13.716;2023-12-04T09:03:55;100193.03;;;-1.41;65.07
84267;BME280;74414;51.098;13.716;2023-12-04T09:06:21;100187.97;;;-1.52;64.50
84267;BME280;74414;51.098;13.716;2023-12-04T09:08:46;100193.75;;;-1.64;65.16
84267;BME280;74414;51.098;13.716;2023-12-04T09:11:11;100187.78;;;-1.66;65.48
84267;BME280;74414;51.098;13.716;2023-12-04T09:13:37;100189.09;;;-1.63;65.25
84267;BME280;74414;51.098;13.716;2023-12-04T09:16:03;100176.75;;;-1.46;65.06
84267;BME280;74414;51.098;13.716;2023-12-04T09:18:29;100181.91;;;-1.44;64.72
84267;BME280;74414;51.098;13.716;2023-12-04T09:20:54;100174.72;;;-1.30;64.65
84267;BME280;74414;51.098;13.716;2023-12-04T09:23:20;100173.81;;;-1.21;64.25
84267;BME280;74414;51.098;13.716;2023-12-04T09:25:45;100181.00;;;-0.77;62.85
84267;BME280;74414;51.098;13.716;2023-12-04T09:28:10;100196.66;;;-0.93;63.15
84267;BME280;74414;51.098;13.716;2023-12-04T09:30:36;100178.34;;;-0.59;62.30
84267;BME280;74414;51.098;13.716;2023-12-04T09:33:02;100173.38;;;-0.75;62.42
84267;BME280;74414;51.098;13.716;2023-12-04T09:35:28;100173.50;;;-0.91;62.42
84267;BME280;74414;51.098;13.716;2023-12-04T09:37:53;100172.88;;;-0.82;63.19
84267;BME280;74414;51.098;13.716;2023-12-04T09:40:19;100174.88;;;-0.64;62.58
84267;BME280;74414;51.098;13.716;2023-12-04T09:42:45;100165.59;;;-0.40;61.69
84267;BME280;74414;51.098;13.716;2023-12-04T09:45:11;100166.06;;;-0.56;62.23
84267;BME280;74414;51.098;13.716;2023-12-04T09:47:37;100162.88;;;-0.63;62.17
84267;BME280;74414;51.098;13.716;2023-12-04T09:50:03;100162.84;;;-0.58;62.18
84267;BME280;74414;51.098;13.716;2023-12-04T09:52:30;100147.72;;;-0.46;62.49
84267;BME280;74414;51.098;13.716;2023-12-04T09:54:56;100149.53;;;-0.18;61.33
84267;BME280;74414;51.098;13.716;2023-12-04T09:57:23;100144.00;;;0.06;60.71
84267;BME280;74414;51.098;13.716;2023-12-04T09:59:51;100145.25;;;-0.24;60.94
84267;BME280;74414;51.098;13.716;2023-12-04T10:02:16;100122.06;;;-0.40;61.24
84267;BME280;74414;51.098;13.716;2023-12-04T10:04:42;100115.16;;;-0.32;61.86
84267;BME280;74414;51.098;13.716;2023-12-04T10:07:07;100110.53;;;-0.13;61.28
84267;BME280;74414;51.098;13.716;2023-12-04T10:09:33;100108.97;;;-0.19;60.96
84267;BME280;74414;51.098;13.716;2023-12-04T10:12:00;100109.50;;;-0.54;61.64
84267;BME280;74414;51.098;13.716;2023-12-04T10:14:25;100095.16;;;-0.41;61.99
84267;BME280;74414;51.098;13.716;2023-12-04T10:16:51;100095.28;;;-0.33;62.50
84267;BME280;74414;51.098;13.716;2023-12-04T10:19:26;100093.78;;;-0.39;61.59
84267;BME280;74414;51.098;13.716;2023-12-04T10:21:52;100108.59;;;-0.50;62.10
84267;BME280;74414;51.098;13.716;2023-12-04T10:24:36;100088.25;;;-0.52;62.64
84267;BME280;74414;51.098;13.716;2023-12-04T10:27:03;100084.41;;;-0.51;62.22
84267;BME280;74414;51.098;13.716;2023-12-04T10:29:40;100067.34;;;-0.57;62.32
84267;BME280;74414;51.098;13.716;2023-12-04T10:32:07;100062.94;;;-0.71;62.99
84267;BME280;74414;51.098;13.716;2023-12-04T10:34:32;100073.66;;;-0.61;62.95
84267;BME280;74414;51.098;13.716;2023-12-04T10:36:59;100068.59;;;-0.68;62.20
84267;BME280;74414;51.098;13.716;2023-12-04T10:39:25;100075.69;;;-0.48;62.10
84267;BME280;74414;51.098;13.716;2023-12-04T10:42:01;100076.91;;;-0.59;62.43
84267;BME280;74414;51.098;13.716;2023-12-04T10:44:27;100059.56;;;-0.63;61.77
84267;BME280;74414;51.098;13.716;2023-12-04T10:46:55;100060.72;;;-0.69;62.64
84267;BME280;74414;51.098;13.716;2023-12-04T10:49:26;100056.47;;;-0.57;62.12
84267;BME280;74414;51.098;13.716;2023-12-04T10:51:52;100047.06;;;-0.46;61.12
84267;BME280;74414;51.098;13.716;2023-12-04T10:54:18;100058.03;;;-0.32;62.04
84267;BME280;74414;51.098;13.716;2023-12-04T10:56:44;100047.16;;;-0.14;60.89
84267;BME280;74414;51.098;13.716;2023-12-04T10:59:15;100044.63;;;-0.29;61.51
84267;BME280;74414;51.098;13.716;2023-12-04T11:01:44;100042.88;;;-0.57;61.21
84267;BME280;74414;51.098;13.716;2023-12-04T11:04:16;100050.75;;;-0.55;61.52
84267;BME280;74414;51.098;13.716;2023-12-04T11:06:45;100031.84;;;-0.28;61.08
84267;BME280;74414;51.098;13.716;2023-12-04T11:09:12;100035.34;;;-0.09;60.33
84267;BME280;74414;51.098;13.716;2023-12-04T11:11:40;100032.63;;;0.10;59.03
84267;BME280;74414;51.098;13.716;2023-12-04T11:14:09;100034.13;;;0.48;58.76
84267;BME280;74414;51.098;13.716;2023-12-04T11:16:46;100034.03;;;0.66;57.87
84267;BME280;74414;51.098;13.716;2023-12-04T11:19:23;100028.88;;;0.51;58.54
84267;BME280;74414;51.098;13.716;2023-12-04T11:21:53;100016.31;;;0.37;59.13
84267;BME280;74414;51.098;13.716;2023-12-04T11:24:20;100002.03;;;0.45;59.24
84267;BME280;74414;51.098;13.716;2023-12-04T11:26:46;100004.13;;;0.34;59.24
84267;BME280;74414;51.098;13.716;2023-12-04T11:29:12;100004.94;;;0.21;58.82
84267;BME280;74414;51.098;13.716;2023-12-04T11:31:39;99997.66;;;0.30;59.36
84267;BME280;74414;51.098;13.716;2023-12-04T11:34:04;99995.03;;;0.39;58.94
84267;BME280;74414;51.098;13.716;2023-12-04T11:36:33;99994.31;;;-0.13;59.53
84267;BME280;74414;51.098;13.716;2023-12-04T11:39:00;99987.03;;;-0.17;60.31
84267;BME280;74414;51.098;13.716;2023-12-04T11:41:25;99977.66;;;-0.25;60.35
84267;BME280;74414;51.098;13.716;2023-12-04T11:43:52;99964.59;;;-0.41;60.95
84267;BME280;74414;51.098;13.716;2023-12-04T11:46:22;99970.41;;;-0.66;62.04
84267;BME280;74414;51.098;13.716;2023-12-04T11:48:55;99948.00;;;-0.58;61.59
84267;BME280;74414;51.098;13.716;2023-12-04T11:54:07;99941.69;;;-0.72;62.24
84267;BME280;74414;51.098;13.716;2023-12-04T11:56:33;99943.97;;;-0.61;61.08
84267;BME280;74414;51.098;13.716;2023-12-04T11:59:05;99925.97;;;-0.57;61.67
84267;BME280;74414;51.098;13.716;2023-12-04T12:01:36;99920.66;;;-0.48;61.57
84267;BME280;74414;51.098;13.716;2023-12-04T12:04:04;99920.50;;;-0.57;60.89
84267;BME280;74414;51.098;13.716;2023-12-04T12:06:30;99917.44;;;-0.50;60.59
84267;BME280;74414;51.098;13.716;2023-12-04T12:08:55;99911.53;;;-0.57;60.35
84267;BME280;74414;51.098;13.716;2023-12-04T12:11:22;99899.56;;;-0.56;60.48
84267;BME280;74414;51.098;13.716;2023-12-04T12:13:48;99902.97;;;-0.64;61.65
84267;BME280;74414;51.098;13.716;2023-12-04T12:16:13;99905.94;;;-0.47;61.59
84267;BME280;74414;51.098;13.716;2023-12-04T12:18:40;99909.59;;;-0.38;61.01
84267;BME280;74414;51.098;13.716;2023-12-04T12:21:06;99898.28;;;-0.45;60.71
84267;BME280;74414;51.098;13.716;2023-12-04T12:23:33;99897.00;;;-0.34;60.28
84267;BME280;74414;51.098;13.716;2023-12-04T12:25:59;99894.91;;;-0.37;60.62
84267;BME280;74414;51.098;13.716;2023-12-04T12:28:25;99899.72;;;-0.34;60.10
84267;BME280;74414;51.098;13.716;2023-12-04T12:30:50;99896.50;;;-0.36;60.19
84267;BME280;74414;51.098;13.716;2023-12-04T12:33:19;99886.56;;;-0.27;59.84
84267;BME280;74414;51.098;13.716;2023-12-04T12:35:46;99885.03;;;-0.33;60.46
84267;BME280;74414;51.098;13.716;2023-12-04T12:38:12;99872.84;;;-0.36;60.80